createdAt,value
2023-05-19T00:00:50.869Z,5.55
2023-05-19T00:01:49.010Z,5.53
2023-05-19T00:02:49.083Z,5.53
2023-05-19T00:03:49.005Z,5.55
2023-05-19T00:04:49.004Z,5.56
2023-05-19T00:05:48.983Z,5.56
2023-05-19T00:06:48.958Z,5.57
2023-05-19T00:07:48.941Z,5.56
2023-05-19T00:08:48.960Z,5.53
2023-05-19T00:09:48.929Z,5.50
2023-05-19T00:10:48.894Z,5.45
2023-05-19T00:11:48.900Z,5.45
2023-05-19T00:12:48.877Z,5.45
2023-05-19T00:13:48.908Z,5.41
2023-05-19T00:14:48.877Z,5.40
2023-05-19T00:15:48.843Z,5.37
2023-05-19T00:16:49.683Z,5.32
2023-05-19T00:17:48.976Z,5.32
2023-05-19T00:18:48.850Z,5.32
2023-05-19T00:19:48.832Z,5.32
2023-05-19T00:20:48.795Z,5.32
2023-05-19T00:21:48.801Z,5.31
2023-05-19T00:22:48.848Z,5.32
2023-05-19T00:23:48.771Z,5.28
2023-05-19T00:24:48.772Z,5.27
2023-05-19T00:25:48.764Z,5.27
2023-05-19T00:26:48.738Z,5.25
2023-05-19T00:27:48.800Z,5.23
2023-05-19T00:28:48.734Z,5.17
2023-05-19T00:29:48.708Z,5.13
2023-05-19T00:30:48.817Z,5.09
2023-05-19T00:31:58.451Z,5.12
2023-05-19T00:32:48.795Z,5.14
2023-05-19T00:33:48.727Z,5.14
2023-05-19T00:36:38.181Z,5.12
2023-05-19T00:37:39.114Z,5.09
2023-05-19T00:38:39.066Z,5.07
2023-05-19T00:39:47.121Z,5.02
2023-05-19T00:40:39.057Z,5.01
2023-05-19T00:41:39.024Z,5.01
2023-05-19T00:42:38.896Z,5.01
2023-05-19T00:43:38.877Z,5.01
2023-05-19T00:44:38.942Z,4.95
2023-05-19T00:45:38.886Z,4.94
2023-05-19T00:46:38.925Z,4.92
2023-05-19T00:47:38.885Z,4.91
2023-05-19T00:48:38.856Z,4.89
2023-05-19T00:49:38.830Z,4.88
2023-05-19T00:50:38.853Z,4.84
2023-05-19T00:51:38.845Z,4.84
2023-05-19T00:52:38.842Z,4.83
2023-05-19T00:53:38.800Z,4.79
2023-05-19T00:54:38.778Z,4.79
2023-05-19T00:55:38.820Z,4.77
2023-05-19T00:56:38.787Z,4.75
2023-05-19T00:57:38.810Z,4.75
2023-05-19T00:58:38.741Z,4.73
2023-05-19T00:59:38.716Z,4.72
2023-05-19T01:00:38.785Z,4.69
2023-05-19T01:01:38.757Z,4.70
2023-05-19T01:02:38.789Z,4.72
2023-05-19T01:03:38.798Z,4.64
2023-05-19T01:04:38.713Z,4.62
2023-05-19T01:05:38.720Z,4.62
2023-05-19T01:09:25.139Z,4.55
2023-05-19T01:10:26.089Z,4.51
2023-05-19T01:11:25.997Z,4.47
2023-05-19T01:12:26.011Z,4.47
2023-05-19T01:13:25.943Z,4.42
2023-05-19T01:14:25.983Z,4.40
2023-05-19T01:15:25.941Z,4.40
2023-05-19T01:16:25.992Z,4.37
2023-05-19T01:17:25.932Z,4.34
2023-05-19T01:18:25.886Z,4.33
2023-05-19T01:19:25.995Z,4.26
2023-05-19T01:20:25.926Z,4.24
2023-05-19T01:21:25.849Z,4.18
2023-05-19T01:22:25.892Z,4.18
2023-05-19T01:23:25.852Z,4.16
2023-05-19T01:24:25.866Z,4.12
2023-05-19T01:25:25.819Z,4.12
2023-05-19T01:26:25.798Z,4.08
2023-05-19T01:27:25.783Z,4.08
2023-05-19T01:28:25.812Z,4.06
2023-05-19T01:29:25.797Z,4.14
2023-05-19T01:30:25.800Z,4.22
2023-05-19T01:31:48.221Z,4.33
2023-05-19T01:32:25.848Z,4.36
2023-05-19T01:33:25.809Z,4.39
2023-05-19T01:34:25.721Z,4.40
2023-05-19T01:35:25.697Z,4.39
2023-05-19T01:36:25.702Z,4.37
2023-05-19T01:37:25.702Z,4.34
2023-05-19T01:38:25.686Z,4.34
2023-05-19T01:39:25.754Z,4.32
2023-05-19T01:40:25.667Z,4.29
2023-05-19T01:41:25.702Z,4.29
2023-05-19T01:42:25.664Z,4.37
2023-05-19T01:43:25.633Z,4.36
2023-05-19T01:44:25.647Z,4.36
2023-05-19T01:45:25.623Z,4.37
2023-05-19T01:46:25.695Z,4.37
2023-05-19T01:47:25.638Z,4.37
2023-05-19T01:48:25.588Z,4.39
2023-05-19T01:49:25.609Z,4.33
2023-05-19T01:50:25.531Z,4.29
2023-05-19T01:51:25.527Z,4.33
2023-05-19T01:52:34.022Z,4.32
2023-05-19T01:53:25.599Z,4.36
2023-05-19T01:54:25.540Z,4.46
2023-05-19T01:55:25.505Z,4.52
2023-05-19T01:56:25.490Z,4.57
2023-05-19T01:57:25.519Z,4.59
2023-05-19T01:58:25.485Z,4.58
2023-05-19T01:59:25.470Z,4.57
2023-05-19T02:00:25.465Z,4.55
2023-05-19T02:01:25.518Z,4.51
2023-05-19T02:02:25.463Z,4.44
2023-05-19T02:03:25.433Z,4.46
2023-05-19T02:04:25.447Z,4.43
2023-05-19T02:05:25.459Z,4.39
2023-05-19T02:06:25.405Z,4.37
2023-05-19T02:07:25.397Z,4.36
2023-05-19T02:08:25.367Z,4.36
2023-05-19T02:09:25.363Z,4.29
2023-05-19T02:10:25.338Z,4.25
2023-05-19T02:11:25.389Z,4.22
2023-05-19T02:12:25.358Z,4.21
2023-05-19T02:13:25.307Z,4.18
2023-05-19T02:14:25.371Z,4.18
2023-05-19T02:15:36.547Z,4.21
2023-05-19T02:16:25.454Z,4.19
2023-05-19T02:17:25.383Z,4.16
2023-05-19T02:18:25.287Z,4.15
2023-05-19T02:19:25.329Z,4.14
2023-05-19T02:20:25.239Z,4.07
2023-05-19T02:21:25.290Z,4.07
2023-05-19T02:22:25.255Z,4.08
2023-05-19T02:23:25.229Z,4.08
2023-05-19T02:24:25.209Z,4.07
2023-05-19T02:25:25.276Z,4.07
2023-05-19T02:26:25.245Z,4.06
2023-05-19T02:27:25.173Z,4.04
2023-05-19T02:28:25.230Z,4.07
2023-05-19T02:30:43.058Z,4.08
2023-05-19T02:31:43.953Z,4.04
2023-05-19T02:32:58.961Z,4.04
2023-05-19T02:33:43.849Z,4.06
2023-05-19T02:34:43.938Z,4.10
2023-05-19T02:35:43.787Z,4.08
2023-05-19T02:36:43.777Z,4.14
2023-05-19T02:37:43.794Z,4.14
2023-05-19T02:38:43.847Z,4.19
2023-05-19T02:39:43.809Z,4.22
2023-05-19T02:40:43.779Z,4.19
2023-05-19T02:41:50.268Z,4.22
2023-05-19T02:42:43.689Z,4.24
2023-05-19T02:43:43.647Z,4.22
2023-05-19T02:44:43.663Z,4.22
2023-05-19T02:45:43.615Z,4.21
2023-05-19T02:46:43.674Z,4.22
2023-05-19T02:47:43.592Z,4.21
2023-05-19T02:48:43.671Z,4.16
2023-05-19T02:49:43.571Z,4.14
2023-05-19T02:50:43.539Z,4.15
2023-05-19T02:51:43.544Z,4.14
2023-05-19T02:52:43.558Z,4.14
2023-05-19T02:53:43.535Z,4.16
2023-05-19T02:54:43.571Z,4.22
2023-05-19T02:55:43.503Z,4.25
2023-05-19T02:56:43.489Z,4.24
2023-05-19T02:57:43.476Z,4.22
2023-05-19T02:58:43.464Z,4.25
2023-05-19T02:59:43.772Z,4.25
2023-05-19T03:00:43.450Z,4.24
2023-05-19T03:01:43.480Z,4.28
2023-05-19T03:02:43.559Z,4.25
2023-05-19T03:03:43.500Z,4.19
2023-05-19T03:04:43.397Z,4.19
2023-05-19T03:05:43.397Z,4.16
2023-05-19T03:06:43.423Z,4.15
2023-05-19T03:07:43.447Z,4.12
2023-05-19T03:08:43.356Z,4.10
2023-05-19T03:09:43.370Z,4.10
2023-05-19T03:10:43.348Z,4.08
2023-05-19T03:11:43.385Z,4.06
2023-05-19T03:12:43.333Z,4.04
2023-05-19T03:13:43.322Z,4.03
2023-05-19T03:14:43.307Z,4.04
2023-05-19T03:15:43.294Z,4.07
2023-05-19T03:16:43.555Z,4.10
2023-05-19T03:17:43.408Z,4.14
2023-05-19T03:18:43.311Z,4.12
2023-05-19T03:19:43.263Z,4.08
2023-05-19T03:20:43.256Z,4.06
2023-05-19T03:21:43.221Z,4.07
2023-05-19T03:22:43.257Z,4.07
2023-05-19T03:23:43.288Z,4.07
2023-05-19T03:24:43.208Z,4.03
2023-05-19T03:25:43.197Z,4.04
2023-05-19T03:26:43.189Z,4.06
2023-05-19T03:27:43.219Z,4.07
2023-05-19T03:28:43.159Z,4.04
2023-05-19T03:29:43.172Z,4.01
2023-05-19T03:30:43.145Z,4.01
2023-05-19T03:31:43.130Z,4.01
2023-05-19T03:32:43.256Z,4.10
2023-05-19T03:33:43.127Z,4.15
2023-05-19T03:34:43.090Z,4.19
2023-05-19T03:35:43.122Z,4.18
2023-05-19T03:36:43.082Z,4.18
2023-05-19T03:37:43.072Z,4.21
2023-05-19T03:38:43.084Z,4.24
2023-05-19T03:39:43.145Z,4.22
2023-05-19T03:40:43.036Z,4.18
2023-05-19T03:41:43.047Z,4.18
2023-05-19T03:42:43.017Z,4.21
2023-05-19T03:43:43.020Z,4.18
2023-05-19T03:44:43.035Z,4.19
2023-05-19T03:45:43.017Z,4.18
2023-05-19T03:46:42.981Z,4.19
2023-05-19T03:47:43.004Z,4.18
2023-05-19T03:48:43.013Z,4.16
2023-05-19T03:49:42.988Z,4.16
2023-05-19T03:50:42.952Z,4.15
2023-05-19T03:51:42.936Z,4.16
2023-05-19T03:52:42.918Z,4.14
2023-05-19T03:53:42.940Z,4.12
2023-05-19T03:54:42.934Z,4.14
2023-05-19T03:55:42.891Z,4.08
2023-05-19T03:56:42.902Z,4.04
2023-05-19T03:57:42.867Z,4.03
2023-05-19T03:58:42.883Z,3.98
2023-05-19T03:59:42.857Z,3.97
2023-05-19T04:00:42.840Z,4.03
2023-05-19T04:01:42.827Z,4.04
2023-05-19T04:02:42.918Z,4.06
2023-05-19T04:03:42.902Z,4.15
2023-05-19T04:04:42.867Z,4.16
2023-05-19T04:05:42.790Z,4.16
2023-05-19T04:06:42.787Z,4.21
2023-05-19T04:07:42.797Z,4.26
2023-05-19T04:08:42.755Z,4.32
2023-05-19T04:09:42.750Z,4.34
2023-05-19T04:10:42.744Z,4.37
2023-05-19T04:11:42.728Z,4.42
2023-05-19T04:12:42.753Z,4.47
2023-05-19T04:13:43.423Z,4.52
2023-05-19T04:14:42.708Z,4.54
2023-05-19T04:15:42.716Z,4.58
2023-05-19T04:16:42.692Z,4.62
2023-05-19T04:17:42.768Z,4.69
2023-05-19T04:18:42.686Z,4.73
2023-05-19T04:19:42.669Z,4.77
2023-05-19T04:20:42.634Z,4.79
2023-05-19T04:21:42.676Z,4.77
2023-05-19T04:22:42.616Z,4.83
2023-05-19T04:23:42.600Z,4.89
2023-05-19T04:24:42.592Z,4.94
2023-05-19T04:25:42.631Z,5.01
2023-05-19T04:26:42.588Z,5.04
2023-05-19T04:27:42.581Z,5.09
2023-05-19T04:28:42.552Z,5.17
2023-05-19T04:29:42.576Z,5.27
2023-05-19T04:30:42.627Z,5.34
2023-05-19T04:31:42.607Z,5.41
2023-05-19T04:32:42.576Z,5.49
2023-05-19T04:33:42.539Z,5.64
2023-05-19T04:34:42.501Z,5.77
2023-05-19T04:35:42.538Z,5.96
2023-05-19T04:36:42.476Z,6.13
2023-05-19T04:37:42.467Z,6.30
2023-05-19T04:38:42.445Z,6.44
2023-05-19T04:39:42.448Z,6.61
2023-05-19T04:40:42.477Z,6.72
2023-05-19T04:41:42.426Z,6.80
2023-05-19T04:42:42.441Z,6.87
2023-05-19T04:43:42.413Z,6.87
2023-05-19T04:44:42.423Z,6.91
2023-05-19T04:45:42.461Z,6.95
2023-05-19T04:46:42.394Z,7.02
2023-05-19T04:47:42.443Z,7.15
2023-05-19T04:48:42.374Z,7.23
2023-05-19T04:49:42.408Z,7.34
2023-05-19T04:50:42.338Z,7.41
2023-05-19T04:51:42.340Z,7.50
2023-05-19T04:52:42.331Z,7.59
2023-05-19T04:53:42.319Z,7.74
2023-05-19T04:54:42.329Z,7.90
2023-05-19T04:55:42.306Z,8.14
2023-05-19T04:56:42.271Z,8.36
2023-05-19T04:57:42.263Z,8.62
2023-05-19T04:58:42.339Z,8.96
2023-05-19T04:59:42.267Z,9.30
2023-05-19T05:00:42.277Z,9.71
2023-05-19T05:01:42.248Z,10.07
2023-05-19T05:02:42.272Z,10.34
2023-05-19T05:03:42.388Z,10.52
2023-05-19T05:04:42.182Z,10.70
2023-05-19T05:05:42.202Z,10.92
2023-05-19T05:06:42.165Z,11.24
2023-05-19T05:07:42.144Z,11.56
2023-05-19T05:08:42.160Z,11.89
2023-05-19T05:09:42.196Z,12.29
2023-05-19T05:10:42.136Z,12.66
2023-05-19T05:11:42.115Z,12.89
2023-05-19T05:12:42.127Z,12.97
2023-05-19T05:13:42.112Z,13.09
2023-05-19T05:14:42.140Z,13.17
2023-05-19T05:15:42.095Z,13.18
2023-05-19T05:16:42.294Z,13.06
2023-05-19T05:17:42.122Z,12.81
2023-05-19T05:18:44.383Z,12.74
2023-05-19T05:19:42.029Z,12.56
2023-05-19T05:20:42.124Z,12.52
2023-05-19T05:21:42.008Z,12.78
2023-05-19T05:22:42.042Z,13.20
2023-05-19T05:23:42.031Z,13.63
2023-05-19T05:24:41.990Z,13.95
2023-05-19T05:25:41.979Z,14.16
2023-05-19T05:26:41.976Z,14.52
2023-05-19T05:27:41.993Z,14.84
2023-05-19T05:28:41.931Z,15.13
2023-05-19T05:29:41.939Z,15.39
2023-05-19T05:30:41.907Z,15.57
2023-05-19T05:31:41.940Z,15.78
2023-05-19T05:32:41.983Z,15.94
2023-05-19T05:33:41.971Z,16.09
2023-05-19T05:34:41.925Z,16.18
2023-05-19T05:35:41.859Z,16.07
2023-05-19T05:36:41.885Z,15.99
2023-05-19T05:37:41.843Z,16.12
2023-05-19T05:38:41.845Z,15.99
2023-05-19T05:39:41.834Z,15.99
2023-05-19T05:40:41.839Z,16.25
2023-05-19T05:41:41.855Z,16.41
2023-05-19T05:42:41.786Z,16.55
2023-05-19T05:43:41.794Z,16.44
2023-05-19T05:44:41.761Z,16.50
2023-05-19T05:45:41.840Z,16.04
2023-05-19T05:46:41.737Z,16.04
2023-05-19T05:47:41.806Z,16.18
2023-05-19T05:48:41.748Z,16.50
2023-05-19T05:49:41.801Z,16.90
2023-05-19T05:50:41.729Z,17.23
2023-05-19T05:51:44.625Z,17.23
2023-05-19T05:52:41.678Z,17.15
2023-05-19T05:53:41.764Z,17.13
2023-05-19T05:54:41.693Z,16.92
2023-05-19T05:55:41.675Z,16.85
2023-05-19T05:56:41.661Z,16.75
2023-05-19T05:57:41.629Z,16.99
2023-05-19T05:58:41.620Z,16.96
2023-05-19T05:59:41.725Z,17.04
2023-05-19T06:00:41.597Z,17.15
2023-05-19T06:01:41.591Z,16.89
2023-05-19T06:02:41.746Z,16.90
2023-05-19T06:03:41.625Z,17.35
2023-05-19T06:04:41.601Z,17.88
2023-05-19T06:05:41.575Z,18.17
2023-05-19T06:06:41.565Z,18.46
2023-05-19T06:07:41.540Z,18.72
2023-05-19T06:08:41.558Z,18.92
2023-05-19T06:09:41.728Z,18.95
2023-05-19T06:10:41.513Z,19.20
2023-05-19T06:11:41.636Z,19.57
2023-05-19T06:12:41.488Z,19.11
2023-05-19T06:13:41.484Z,18.65
2023-05-19T06:14:41.491Z,18.52
2023-05-19T06:15:41.484Z,17.92
2023-05-19T06:16:41.475Z,17.55
2023-05-19T06:17:41.504Z,17.00
2023-05-19T06:18:41.484Z,17.18
2023-05-19T06:19:41.408Z,17.63
2023-05-19T06:20:41.431Z,18.09
2023-05-19T06:21:41.398Z,18.49
2023-05-19T06:22:41.380Z,18.86
2023-05-19T06:23:41.416Z,18.95
2023-05-19T06:24:41.389Z,19.36
2023-05-19T06:25:41.338Z,19.46
2023-05-19T06:26:41.340Z,19.29
2023-05-19T06:27:41.359Z,19.33
2023-05-19T06:28:41.313Z,19.57
2023-05-19T06:29:41.308Z,19.73
2023-05-19T06:30:41.314Z,19.75
2023-05-19T06:31:41.316Z,19.68
2023-05-19T06:32:41.377Z,19.47
2023-05-19T06:33:41.263Z,19.57
2023-05-19T06:34:41.297Z,19.57
2023-05-19T06:35:41.242Z,19.36
2023-05-19T06:36:41.234Z,19.79
2023-05-19T06:37:41.253Z,20.03
2023-05-19T06:38:41.210Z,20.03
2023-05-19T06:39:41.267Z,19.46
2023-05-19T06:40:41.207Z,19.33
2023-05-19T06:41:41.213Z,19.21
2023-05-19T06:42:41.205Z,19.18
2023-05-19T06:43:41.176Z,19.70
2023-05-19T06:44:41.161Z,19.88
2023-05-19T06:45:41.147Z,20.54
2023-05-19T06:46:41.227Z,20.87
2023-05-19T06:47:41.167Z,20.58
2023-05-19T06:48:41.109Z,20.18
2023-05-19T06:49:41.111Z,19.94
2023-05-19T06:50:41.149Z,19.84
2023-05-19T06:51:41.126Z,20.12
2023-05-19T06:52:41.077Z,19.61
2023-05-19T06:53:41.069Z,19.69
2023-05-19T06:54:41.052Z,19.80
2023-05-19T06:55:54.315Z,19.93
2023-05-19T06:56:41.053Z,20.46
2023-05-19T06:57:41.032Z,20.71
2023-05-19T06:58:41.187Z,20.20
2023-05-19T06:59:41.001Z,20.02
2023-05-19T07:00:41.063Z,19.86
2023-05-19T07:01:41.054Z,20.25
2023-05-19T07:02:41.053Z,20.39
2023-05-19T07:03:41.127Z,20.13
2023-05-19T07:04:40.968Z,19.69
2023-05-19T07:05:41.032Z,19.72
2023-05-19T07:06:40.935Z,19.94
2023-05-19T07:07:40.930Z,20.15
2023-05-19T07:08:40.920Z,20.46
2023-05-19T07:09:40.938Z,20.79
2023-05-19T07:10:40.966Z,20.95
2023-05-19T07:11:40.886Z,21.05
2023-05-19T07:12:40.889Z,21.20
2023-05-19T07:13:40.925Z,21.34
2023-05-19T07:14:40.879Z,21.74
2023-05-19T07:15:40.846Z,22.04
2023-05-19T07:16:40.899Z,22.14
2023-05-19T07:17:40.854Z,22.06
2023-05-19T07:18:40.887Z,22.29
2023-05-19T07:19:40.860Z,22.19
2023-05-19T07:20:40.795Z,20.76
2023-05-19T07:21:40.790Z,20.76
2023-05-19T07:22:40.852Z,20.79
2023-05-19T07:23:40.796Z,20.66
2023-05-19T07:24:40.797Z,20.64
2023-05-19T07:25:40.736Z,21.04
2023-05-19T07:26:40.745Z,21.61
2023-05-19T07:27:40.730Z,22.02
2023-05-19T07:28:41.718Z,22.37
2023-05-19T07:29:40.708Z,22.67
2023-05-19T07:30:40.701Z,22.99
2023-05-19T07:31:40.703Z,23.23
2023-05-19T07:32:40.761Z,23.71
2023-05-19T07:33:40.708Z,24.26
2023-05-19T07:34:40.660Z,24.52
2023-05-19T07:35:40.662Z,24.75
2023-05-19T07:36:40.640Z,25.01
2023-05-19T07:37:40.661Z,25.62
2023-05-19T07:38:40.675Z,25.93
2023-05-19T07:39:40.625Z,26.02
2023-05-19T07:40:40.608Z,25.77
2023-05-19T07:41:40.589Z,25.83
2023-05-19T07:42:40.622Z,26.08
2023-05-19T07:43:40.589Z,26.11
2023-05-19T07:44:40.588Z,26.49
2023-05-19T07:45:44.672Z,26.12
2023-05-19T07:46:40.571Z,25.90
2023-05-19T07:47:40.609Z,26.37
2023-05-19T07:48:42.086Z,26.84
2023-05-19T07:49:41.954Z,27.31
2023-05-19T07:50:42.454Z,27.04
2023-05-19T07:51:42.517Z,26.39
2023-05-19T07:52:42.239Z,26.32
2023-05-19T07:53:40.512Z,26.11
2023-05-19T07:54:40.466Z,24.90
2023-05-19T07:55:40.443Z,24.69
2023-05-19T07:56:40.524Z,24.32
2023-05-19T07:57:40.436Z,24.56
2023-05-19T07:58:40.435Z,24.88
2023-05-19T07:59:40.411Z,25.01
2023-05-19T08:00:40.399Z,25.42
2023-05-19T08:01:40.418Z,25.65
2023-05-19T08:02:40.452Z,25.94
2023-05-19T08:03:40.457Z,26.22
2023-05-19T08:04:40.398Z,25.94
2023-05-19T08:05:40.378Z,26.18
2023-05-19T08:06:40.344Z,26.15
2023-05-19T08:07:40.380Z,26.27
2023-05-19T08:08:40.324Z,25.86
2023-05-19T08:09:40.311Z,25.43
2023-05-19T08:10:40.348Z,25.34
2023-05-19T08:11:40.307Z,25.09
2023-05-19T08:12:40.314Z,25.57
2023-05-19T08:13:40.276Z,25.56
2023-05-19T08:14:40.273Z,25.79
2023-05-19T08:15:40.318Z,26.18
2023-05-19T08:16:40.270Z,26.18
2023-05-19T08:17:40.301Z,26.44
2023-05-19T08:18:40.357Z,26.43
2023-05-19T08:19:40.256Z,26.27
2023-05-19T08:20:40.289Z,26.22
2023-05-19T08:21:40.320Z,26.62
2023-05-19T08:22:40.225Z,26.47
2023-05-19T08:23:40.219Z,26.61
2023-05-19T08:24:40.242Z,27.02
2023-05-19T08:25:40.197Z,27.32
2023-05-19T08:26:40.179Z,27.67
2023-05-19T08:27:40.161Z,27.67
2023-05-19T08:28:40.183Z,27.33
2023-05-19T08:29:40.175Z,26.80
2023-05-19T08:30:40.165Z,26.95
2023-05-19T08:31:40.239Z,27.38
2023-05-19T08:32:40.168Z,27.23
2023-05-19T08:33:40.140Z,27.09
2023-05-19T08:34:40.139Z,26.46
2023-05-19T08:35:40.136Z,25.47
2023-05-19T08:36:40.098Z,25.84
2023-05-19T08:37:40.076Z,26.42
2023-05-19T08:38:40.109Z,26.94
2023-05-19T08:39:40.067Z,27.17
2023-05-19T08:40:40.056Z,27.53
2023-05-19T08:41:40.048Z,27.96
2023-05-19T08:42:40.034Z,28.23
2023-05-19T08:43:40.036Z,28.78
2023-05-19T08:44:40.021Z,29.35
2023-05-19T08:45:40.021Z,28.80
2023-05-19T08:46:40.034Z,27.95
2023-05-19T08:47:40.081Z,27.13
2023-05-19T08:48:40.078Z,26.84
2023-05-19T08:49:39.952Z,26.81
2023-05-19T08:50:39.952Z,26.62
2023-05-19T08:51:39.939Z,26.87
2023-05-19T08:52:39.967Z,26.15
2023-05-19T08:53:39.923Z,25.98
2023-05-19T08:54:39.912Z,26.40
2023-05-19T08:55:39.904Z,27.29
2023-05-19T08:56:39.995Z,27.88
2023-05-19T08:57:39.914Z,28.21
2023-05-19T08:58:39.881Z,27.05
2023-05-19T08:59:39.869Z,26.64
2023-05-19T09:00:39.933Z,25.94
2023-05-19T09:01:39.988Z,26.15
2023-05-19T09:02:50.394Z,26.98
2023-05-19T09:03:39.919Z,27.28
2023-05-19T09:04:39.902Z,27.67
2023-05-19T09:05:39.883Z,27.47
2023-05-19T09:06:39.848Z,27.20
2023-05-19T09:07:39.803Z,26.69
2023-05-19T09:08:40.167Z,26.47
2023-05-19T09:09:39.901Z,26.59
2023-05-19T09:10:39.780Z,26.87
2023-05-19T09:11:39.810Z,27.64
2023-05-19T09:12:41.091Z,28.58
2023-05-19T09:13:40.083Z,29.38
2023-05-19T09:14:40.516Z,29.41
2023-05-19T09:15:39.787Z,29.75
2023-05-19T09:16:39.818Z,28.60
2023-05-19T09:17:39.726Z,27.69
2023-05-19T09:18:39.771Z,27.46
2023-05-19T09:19:39.755Z,27.79
2023-05-19T09:20:39.801Z,27.80
2023-05-19T09:21:39.706Z,28.31
2023-05-19T09:22:39.691Z,27.91
2023-05-19T09:23:39.681Z,28.25
2023-05-19T09:24:39.716Z,27.88
2023-05-19T09:25:40.497Z,28.01
2023-05-19T09:26:39.646Z,27.04
2023-05-19T09:27:39.649Z,26.57
2023-05-19T09:28:39.640Z,25.24
2023-05-19T09:29:39.640Z,23.76
2023-05-19T09:30:39.656Z,21.90
2023-05-19T09:31:39.675Z,22.53
2023-05-19T09:32:39.598Z,23.12
2023-05-19T09:33:39.708Z,24.23
2023-05-19T09:34:39.616Z,25.10
2023-05-19T09:35:39.568Z,25.67
2023-05-19T09:36:39.601Z,25.38
2023-05-19T09:37:39.546Z,25.64
2023-05-19T09:38:39.530Z,26.42
2023-05-19T09:39:39.562Z,27.01
2023-05-19T09:40:39.917Z,27.80
2023-05-19T09:41:39.970Z,28.47
2023-05-19T09:42:39.553Z,27.46
2023-05-19T09:43:39.485Z,27.06
2023-05-19T09:44:39.506Z,27.48
2023-05-19T09:45:39.509Z,26.96
2023-05-19T09:46:39.488Z,26.89
2023-05-19T09:47:39.702Z,26.31
2023-05-19T09:48:39.471Z,26.49
2023-05-19T09:49:39.506Z,26.89
2023-05-19T09:50:39.470Z,26.81
2023-05-19T09:51:39.406Z,26.57
2023-05-19T09:52:39.413Z,26.91
2023-05-19T09:53:39.584Z,27.28
2023-05-19T09:54:39.409Z,26.37
2023-05-19T09:55:39.380Z,24.47
2023-05-19T09:56:39.391Z,23.14
2023-05-19T09:57:39.355Z,24.08
2023-05-19T09:58:39.459Z,23.24
2023-05-19T09:59:39.365Z,23.20
2023-05-19T10:00:39.328Z,22.72
2023-05-19T10:01:39.378Z,23.27
2023-05-19T10:02:39.384Z,25.00
2023-05-19T10:03:39.333Z,26.37
2023-05-19T10:04:39.311Z,26.64
2023-05-19T10:05:39.345Z,24.63
2023-05-19T10:06:39.361Z,23.45
2023-05-19T10:07:39.335Z,23.85
2023-05-19T10:08:39.310Z,23.38
2023-05-19T10:09:39.254Z,23.05
2023-05-19T10:10:39.260Z,21.97
2023-05-19T10:11:39.236Z,21.91
2023-05-19T10:12:39.287Z,22.04
2023-05-19T10:13:39.260Z,21.59
2023-05-19T10:14:39.211Z,21.60
2023-05-19T10:15:49.917Z,21.14
2023-05-19T10:16:39.279Z,22.43
2023-05-19T10:17:39.193Z,23.09
2023-05-19T10:18:40.186Z,23.39
2023-05-19T10:19:39.161Z,22.57
2023-05-19T10:20:39.165Z,21.90
2023-05-19T10:21:39.141Z,22.10
2023-05-19T10:22:39.132Z,23.95
2023-05-19T10:23:39.128Z,24.29
2023-05-19T10:24:39.114Z,23.29
2023-05-19T10:25:39.096Z,22.69
2023-05-19T10:26:39.124Z,22.34
2023-05-19T10:27:39.098Z,22.68
2023-05-19T10:28:39.049Z,23.45
2023-05-19T10:29:39.050Z,22.04
2023-05-19T10:30:39.064Z,21.59
2023-05-19T10:31:39.116Z,20.93
2023-05-19T10:32:39.140Z,22.49
2023-05-19T10:33:39.013Z,22.54
2023-05-19T10:34:39.015Z,21.95
2023-05-19T10:35:39.078Z,21.44
2023-05-19T10:36:39.045Z,23.27
2023-05-19T10:37:39.001Z,24.60
2023-05-19T10:38:38.981Z,24.88
2023-05-19T10:39:38.966Z,24.53
2023-05-19T10:40:39.021Z,22.77
2023-05-19T10:41:38.962Z,21.79
2023-05-19T10:42:38.947Z,21.41
2023-05-19T10:43:39.015Z,21.13
2023-05-19T10:44:38.940Z,20.95
2023-05-19T10:45:38.934Z,20.71
2023-05-19T10:46:38.998Z,21.08
2023-05-19T10:47:38.920Z,22.37
2023-05-19T10:48:38.901Z,23.19
2023-05-19T10:49:38.892Z,24.47
2023-05-19T10:50:38.850Z,25.28
2023-05-19T10:51:38.927Z,25.93
2023-05-19T10:52:38.827Z,26.50
2023-05-19T10:53:38.843Z,25.91
2023-05-19T10:54:38.853Z,26.05
2023-05-19T10:55:38.800Z,25.75
2023-05-19T10:56:38.788Z,26.21
2023-05-19T10:57:39.862Z,27.20
2023-05-19T10:58:38.972Z,27.35
2023-05-19T10:59:38.793Z,27.06
2023-05-19T11:00:38.819Z,27.62
2023-05-19T11:01:38.814Z,27.62
2023-05-19T11:02:38.810Z,28.48
2023-05-19T11:03:38.814Z,29.00
2023-05-19T11:04:38.719Z,29.03
2023-05-19T11:05:38.744Z,28.07
2023-05-19T11:06:38.760Z,27.96
2023-05-19T11:07:38.717Z,28.33
2023-05-19T11:08:38.733Z,28.82
2023-05-19T11:09:40.571Z,29.29
2023-05-19T11:10:38.739Z,29.38
2023-05-19T11:11:38.688Z,28.72
2023-05-19T11:12:38.697Z,28.43
2023-05-19T11:13:38.680Z,27.76
2023-05-19T11:14:38.659Z,27.38
2023-05-19T11:15:38.687Z,26.29
2023-05-19T11:16:38.726Z,24.68
2023-05-19T11:17:38.679Z,23.27
2023-05-19T11:18:38.656Z,22.37
2023-05-19T11:19:38.844Z,22.94
2023-05-19T11:20:38.732Z,24.14
2023-05-19T11:21:40.395Z,24.08
2023-05-19T11:22:39.791Z,25.05
2023-05-19T11:23:38.596Z,25.97
2023-05-19T11:24:38.602Z,26.64
2023-05-19T11:25:38.537Z,27.24
2023-05-19T11:26:38.569Z,26.12
2023-05-19T11:27:38.585Z,26.59
2023-05-19T11:28:38.502Z,25.90
2023-05-19T11:29:38.497Z,25.39
2023-05-19T11:30:38.484Z,24.83
2023-05-19T11:31:38.532Z,24.35
2023-05-19T11:32:38.478Z,25.67
2023-05-19T11:33:38.504Z,26.36
2023-05-19T11:34:38.522Z,26.89
2023-05-19T11:35:38.716Z,26.86
2023-05-19T11:36:38.493Z,27.01
2023-05-19T11:37:38.838Z,27.17
2023-05-19T11:38:38.396Z,27.51
2023-05-19T11:39:38.463Z,26.73
2023-05-19T11:40:38.519Z,25.52
2023-05-19T11:41:38.393Z,24.67
2023-05-19T11:42:38.371Z,23.94
2023-05-19T11:43:38.382Z,22.96
2023-05-19T11:44:38.373Z,23.60
2023-05-19T11:45:38.384Z,23.83
2023-05-19T11:46:38.346Z,22.86
2023-05-19T11:47:50.874Z,22.22
2023-05-19T11:48:38.381Z,22.34
2023-05-19T11:49:38.329Z,23.35
2023-05-19T11:50:38.424Z,23.87
2023-05-19T11:51:38.300Z,24.54
2023-05-19T11:52:38.325Z,24.87
2023-05-19T11:53:38.328Z,24.34
2023-05-19T11:54:38.275Z,24.37
2023-05-19T11:55:38.251Z,24.37
2023-05-19T11:56:38.268Z,24.17
2023-05-19T11:57:38.229Z,23.90
2023-05-19T11:58:38.219Z,23.64
2023-05-19T11:59:39.401Z,23.53
2023-05-19T12:00:38.199Z,23.24
2023-05-19T12:01:38.195Z,23.29
2023-05-19T12:02:39.709Z,23.15
2023-05-19T12:03:38.387Z,22.71
2023-05-19T12:04:38.554Z,22.53
2023-05-19T12:05:41.857Z,22.82
2023-05-19T12:06:38.286Z,23.08
2023-05-19T12:07:38.194Z,23.01
2023-05-19T12:08:38.208Z,22.69
2023-05-19T12:09:38.153Z,22.20
2023-05-19T12:10:38.130Z,21.75
2023-05-19T12:11:40.668Z,21.09
2023-05-19T12:12:38.121Z,20.35
2023-05-19T12:13:41.085Z,20.15
2023-05-19T12:14:38.147Z,19.97
2023-05-19T12:15:38.068Z,19.84
2023-05-19T12:16:38.104Z,19.60
2023-05-19T12:17:38.147Z,19.43
2023-05-19T12:18:38.111Z,19.63
2023-05-19T12:19:38.036Z,19.84
2023-05-19T12:20:38.066Z,19.50
2023-05-19T12:21:40.949Z,19.70
2023-05-19T12:22:38.884Z,19.95
2023-05-19T12:23:38.004Z,19.91
2023-05-19T12:24:37.964Z,19.90
2023-05-19T12:25:38.636Z,19.88
2023-05-19T12:26:37.951Z,19.73
2023-05-19T12:27:37.954Z,19.80
2023-05-19T12:28:37.973Z,20.06
2023-05-19T12:29:37.928Z,19.97
2023-05-19T12:30:38.201Z,20.13
2023-05-19T12:31:38.080Z,20.47
2023-05-19T12:32:39.201Z,20.53
2023-05-19T12:33:38.057Z,20.23
2023-05-19T12:34:37.874Z,19.95
2023-05-19T12:35:37.861Z,19.68
2023-05-19T12:36:39.053Z,19.58
2023-05-19T12:37:37.863Z,19.50
2023-05-19T12:38:37.823Z,19.46
2023-05-19T12:39:37.814Z,19.43
2023-05-19T12:40:38.724Z,19.43
2023-05-19T12:41:37.828Z,19.42
2023-05-19T12:42:37.802Z,19.38
2023-05-19T12:43:37.782Z,19.36
2023-05-19T12:44:37.787Z,19.42
2023-05-19T12:45:37.809Z,19.55
2023-05-19T12:46:37.766Z,19.73
2023-05-19T12:47:37.779Z,19.95
2023-05-19T12:48:37.741Z,20.13
2023-05-19T12:49:37.724Z,20.16
2023-05-19T12:50:38.026Z,19.98
2023-05-19T12:51:37.718Z,19.68
2023-05-19T12:52:37.695Z,19.28
2023-05-19T12:53:37.697Z,19.05
2023-05-19T12:54:37.736Z,18.84
2023-05-19T12:55:38.072Z,18.76
2023-05-19T12:56:37.635Z,18.67
2023-05-19T12:57:37.667Z,18.74
2023-05-19T12:58:38.204Z,18.79
2023-05-19T12:59:39.046Z,18.99
2023-05-19T13:00:37.712Z,19.06
2023-05-19T13:01:37.756Z,19.32
2023-05-19T13:02:37.666Z,19.55
2023-05-19T13:03:37.756Z,19.80
2023-05-19T13:04:37.617Z,19.93
2023-05-19T13:05:37.550Z,19.94
2023-05-19T13:06:37.637Z,19.72
2023-05-19T13:07:37.590Z,19.54
2023-05-19T13:08:38.412Z,19.32